createdAt,value
2023-02-09T00:00:06.598Z,-1.13
2023-02-09T00:02:40.728Z,-1.14
2023-02-09T00:05:09.358Z,-1.11
2023-02-09T00:07:36.208Z,-1.24
2023-02-09T00:10:03.774Z,-1.34
2023-02-09T00:12:49.257Z,-1.38
2023-02-09T00:15:16.066Z,-1.44
2023-02-09T00:17:43.018Z,-1.54
2023-02-09T00:20:10.644Z,-1.62
2023-02-09T00:22:37.612Z,-1.59
2023-02-09T00:25:04.622Z,-1.57
2023-02-09T00:27:32.454Z,-1.60
2023-02-09T00:29:59.852Z,-1.65
2023-02-09T00:32:26.781Z,-1.65
2023-02-09T00:34:53.726Z,-1.64
2023-02-09T00:37:20.560Z,-1.62
2023-02-09T00:39:47.454Z,-1.59
2023-02-09T00:42:14.184Z,-1.64
2023-02-09T00:44:41.968Z,-1.66
2023-02-09T00:47:09.654Z,-1.67
2023-02-09T00:49:37.005Z,-1.65
2023-02-09T00:52:04.808Z,-1.64
2023-02-09T00:54:31.673Z,-1.64
2023-02-09T00:57:05.054Z,-1.63
2023-02-09T00:59:35.161Z,-1.61
2023-02-09T01:02:03.290Z,-1.65
2023-02-09T01:04:30.296Z,-1.64
2023-02-09T01:06:57.166Z,-1.64
2023-02-09T01:09:24.468Z,-1.73
2023-02-09T01:11:51.257Z,-1.74
2023-02-09T01:14:18.747Z,-1.69
2023-02-09T01:16:46.050Z,-1.71
2023-02-09T01:19:14.304Z,-1.70
2023-02-09T01:21:41.916Z,-1.69
2023-02-09T01:24:12.252Z,-1.73
2023-02-09T01:26:39.010Z,-1.78
2023-02-09T01:29:05.777Z,-1.82
2023-02-09T01:31:34.837Z,-1.81
2023-02-09T01:34:03.669Z,-1.80
2023-02-09T01:36:31.745Z,-1.85
2023-02-09T01:39:01.124Z,-1.84
2023-02-09T01:41:28.569Z,-1.84
2023-02-09T01:44:14.909Z,-1.88
2023-02-09T01:46:41.708Z,-1.88
2023-02-09T01:49:26.287Z,-1.98
2023-02-09T01:52:07.648Z,-2.01
2023-02-09T01:54:38.315Z,-1.97
2023-02-09T01:57:18.328Z,-1.98
2023-02-09T01:59:50.742Z,-1.97
2023-02-09T02:02:17.665Z,-1.95
2023-02-09T02:04:45.589Z,-1.94
2023-02-09T02:07:21.363Z,-1.94
2023-02-09T02:09:49.358Z,-1.92
2023-02-09T02:12:16.543Z,-1.89
2023-02-09T02:14:43.426Z,-1.90
2023-02-09T02:17:39.452Z,-2.08
2023-02-09T02:20:29.744Z,-2.08
2023-02-09T02:23:19.727Z,-2.02
2023-02-09T02:26:07.072Z,-2.03
2023-02-09T02:28:43.178Z,-2.04
2023-02-09T02:31:38.350Z,-2.18
2023-02-09T02:34:23.702Z,-2.14
2023-02-09T02:37:16.028Z,-2.21
2023-02-09T02:40:24.292Z,-2.19
2023-02-09T02:42:59.740Z,-2.25
2023-02-09T02:45:38.421Z,-2.27
2023-02-09T02:48:29.773Z,-2.34
2023-02-09T02:51:08.553Z,-2.39
2023-02-09T02:53:40.074Z,-2.37
2023-02-09T02:56:28.038Z,-2.55
2023-02-09T02:58:59.570Z,-2.50
2023-02-09T03:01:32.288Z,-2.58
2023-02-09T03:04:01.125Z,-2.59
2023-02-09T03:06:27.950Z,-2.64
2023-02-09T03:08:56.908Z,-2.68
2023-02-09T03:11:28.256Z,-2.68
2023-02-09T03:14:01.026Z,-2.77
2023-02-09T03:16:27.815Z,-2.75
2023-02-09T03:19:16.601Z,-2.79
2023-02-09T03:22:15.354Z,-2.78
2023-02-09T03:24:52.381Z,-2.70
2023-02-09T03:27:21.973Z,-2.68
2023-02-09T03:29:52.978Z,-2.63
2023-02-09T03:32:21.543Z,-2.69
2023-02-09T03:34:49.152Z,-2.65
2023-02-09T03:37:17.631Z,-2.64
2023-02-09T03:39:44.502Z,-2.63
2023-02-09T03:42:11.233Z,-2.59
2023-02-09T03:44:38.297Z,-2.54
2023-02-09T03:47:07.806Z,-2.54
2023-02-09T03:49:39.155Z,-2.71
2023-02-09T03:52:11.174Z,-2.88
2023-02-09T03:54:38.657Z,-2.95
2023-02-09T03:57:06.442Z,-2.88
2023-02-09T03:59:35.726Z,-2.99
2023-02-09T04:02:03.561Z,-2.98
2023-02-09T04:04:30.511Z,-3.11
2023-02-09T04:06:57.726Z,-3.14
2023-02-09T04:09:25.814Z,-3.11
2023-02-09T04:11:53.907Z,-3.14
2023-02-09T04:14:20.733Z,-3.18
2023-02-09T04:16:47.818Z,-3.21
2023-02-09T04:19:15.880Z,-3.21
2023-02-09T04:21:43.029Z,-3.21
2023-02-09T04:24:10.143Z,-3.13
2023-02-09T04:26:36.975Z,-3.15
2023-02-09T04:29:04.321Z,-3.19
2023-02-09T04:31:32.024Z,-3.24
2023-02-09T04:33:58.908Z,-3.24
2023-02-09T04:36:25.718Z,-3.31
2023-02-09T04:38:52.490Z,-3.36
2023-02-09T04:41:19.290Z,-3.35
2023-02-09T04:43:49.098Z,-3.34
2023-02-09T04:46:17.827Z,-3.35
2023-02-09T04:48:44.740Z,-3.39
2023-02-09T04:51:11.786Z,-3.38
2023-02-09T04:53:38.626Z,-3.42
2023-02-09T04:56:06.394Z,-3.42
2023-02-09T04:58:51.625Z,-3.38
2023-02-09T05:01:24.644Z,-3.33
2023-02-09T05:03:52.074Z,-3.36
2023-02-09T05:06:19.450Z,-3.35
2023-02-09T05:08:46.978Z,-3.39
2023-02-09T05:11:13.832Z,-3.32
2023-02-09T05:13:40.878Z,-3.43
2023-02-09T05:16:09.191Z,-3.38
2023-02-09T05:18:36.667Z,-3.38
2023-02-09T05:21:03.655Z,-3.36
2023-02-09T05:23:30.699Z,-3.38
2023-02-09T05:25:57.501Z,-3.36
2023-02-09T05:28:25.303Z,-3.36
2023-02-09T05:30:53.869Z,-3.33
2023-02-09T05:33:27.028Z,-3.38
2023-02-09T05:35:56.071Z,-3.38
2023-02-09T05:38:22.921Z,-3.36
2023-02-09T05:40:50.322Z,-3.32
2023-02-09T05:43:17.764Z,-3.31
2023-02-09T05:45:45.093Z,-3.32
2023-02-09T05:48:11.843Z,-3.31
2023-02-09T05:50:38.592Z,-3.26
2023-02-09T05:53:09.254Z,-3.25
2023-02-09T05:55:44.457Z,-3.23
2023-02-09T05:58:13.965Z,-3.29
2023-02-09T06:00:40.718Z,-3.26
2023-02-09T06:03:07.492Z,-3.37
2023-02-09T06:05:34.324Z,-3.37
2023-02-09T06:08:02.072Z,-3.38
2023-02-09T06:10:28.815Z,-3.40
2023-02-09T06:12:55.576Z,-3.32
2023-02-09T06:15:22.359Z,-3.36
2023-02-09T06:17:49.203Z,-3.35
2023-02-09T06:20:15.982Z,-3.31
2023-02-09T06:22:42.792Z,-3.26
2023-02-09T06:25:09.571Z,-3.17
2023-02-09T06:27:36.898Z,-3.17
2023-02-09T06:30:04.058Z,-3.16
2023-02-09T06:32:31.918Z,-3.22
2023-02-09T06:34:58.848Z,-3.13
2023-02-09T06:37:25.597Z,-3.07
2023-02-09T06:39:52.356Z,-2.99
2023-02-09T06:42:19.072Z,-2.93
2023-02-09T06:44:45.927Z,-2.70
2023-02-09T06:47:12.851Z,-2.47
2023-02-09T06:49:39.599Z,-2.37
2023-02-09T06:52:06.518Z,-2.07
2023-02-09T06:54:33.320Z,-1.76
2023-02-09T06:57:00.242Z,-1.58
2023-02-09T06:59:26.996Z,-1.58
2023-02-09T07:01:55.118Z,-1.54
2023-02-09T07:04:22.271Z,-1.35
2023-02-09T07:06:49.045Z,-1.33
2023-02-09T07:09:15.840Z,-1.33
2023-02-09T07:11:42.675Z,-1.27
2023-02-09T07:14:09.609Z,-1.19
2023-02-09T07:16:36.357Z,-1.04
2023-02-09T07:19:03.351Z,-0.65
2023-02-09T07:21:30.189Z,-0.36
2023-02-09T07:23:57.015Z,-0.42
2023-02-09T07:26:23.796Z,-0.59
2023-02-09T07:28:50.639Z,-0.68
2023-02-09T07:31:17.623Z,-0.45
2023-02-09T07:33:44.882Z,-0.22
2023-02-09T07:36:14.410Z,-0.30
2023-02-09T07:38:42.306Z,-0.35
2023-02-09T07:41:18.221Z,-0.03
2023-02-09T07:43:45.854Z,0.14
2023-02-09T07:46:15.694Z,-0.04
2023-02-09T07:48:42.469Z,0.00
2023-02-09T07:51:20.244Z,0.26
2023-02-09T07:53:47.723Z,0.32
2023-02-09T07:56:14.567Z,0.20
2023-02-09T07:58:41.685Z,0.44
2023-02-09T08:01:11.659Z,0.65
2023-02-09T08:03:40.168Z,0.58
2023-02-09T08:06:42.583Z,0.81
2023-02-09T08:09:12.012Z,1.03
2023-02-09T08:11:45.760Z,1.21
2023-02-09T08:14:22.154Z,1.39
2023-02-09T08:16:52.634Z,1.35
2023-02-09T08:19:23.808Z,1.51
2023-02-09T08:21:51.403Z,1.40
2023-02-09T08:24:20.398Z,1.25
2023-02-09T08:26:47.350Z,1.22
2023-02-09T08:29:14.197Z,1.38
2023-02-09T08:31:41.196Z,1.43
2023-02-09T08:34:08.181Z,1.46
2023-02-09T08:36:37.651Z,1.33
2023-02-09T08:39:05.803Z,1.56
2023-02-09T08:41:33.720Z,1.39
2023-02-09T08:44:01.573Z,1.36
2023-02-09T08:46:28.825Z,1.41
2023-02-09T08:48:55.686Z,1.40
2023-02-09T08:51:22.486Z,1.66
2023-02-09T08:53:52.684Z,1.74
2023-02-09T08:56:21.349Z,1.44
2023-02-09T08:58:48.765Z,1.54
2023-02-09T09:01:15.897Z,1.88
2023-02-09T09:03:42.914Z,2.27
2023-02-09T09:06:12.037Z,2.34
2023-02-09T09:08:40.420Z,2.37
2023-02-09T09:11:12.849Z,2.40
2023-02-09T09:13:44.340Z,2.33
2023-02-09T09:16:17.760Z,2.17
2023-02-09T09:18:44.737Z,1.74
2023-02-09T09:21:13.136Z,1.65
2023-02-09T09:23:39.965Z,1.52
2023-02-09T09:26:07.311Z,1.33
2023-02-09T09:28:34.353Z,1.09
2023-02-09T09:31:06.871Z,1.02
2023-02-09T09:33:33.764Z,0.95
2023-02-09T09:36:02.147Z,0.94
2023-02-09T09:38:31.632Z,0.99
2023-02-09T09:40:58.423Z,1.09
2023-02-09T09:43:29.794Z,0.90
2023-02-09T09:45:56.954Z,0.82
2023-02-09T09:48:31.718Z,0.87
2023-02-09T09:51:06.625Z,0.98
2023-02-09T09:53:36.724Z,1.16
2023-02-09T09:56:07.653Z,0.87
2023-02-09T09:58:39.293Z,0.90
2023-02-09T10:01:06.914Z,0.96
2023-02-09T10:03:33.684Z,1.12
2023-02-09T10:06:10.793Z,1.17
2023-02-09T10:09:04.326Z,1.43
2023-02-09T10:11:38.739Z,1.62
2023-02-09T10:14:05.836Z,1.72
2023-02-09T10:16:38.274Z,1.84
2023-02-09T10:19:18.758Z,1.78
2023-02-09T10:21:45.623Z,1.84
2023-02-09T10:24:22.835Z,2.09
2023-02-09T10:27:09.317Z,2.10
2023-02-09T10:29:36.696Z,2.18
2023-02-09T10:32:12.424Z,2.24
2023-02-09T10:34:40.875Z,2.43
2023-02-09T10:37:21.343Z,2.35
2023-02-09T10:40:01.730Z,2.10
2023-02-09T10:42:32.758Z,2.15
2023-02-09T10:45:08.106Z,2.06
2023-02-09T10:47:35.143Z,2.17
2023-02-09T10:50:12.615Z,2.37
2023-02-09T10:52:59.213Z,2.57
2023-02-09T10:55:41.598Z,2.74
2023-02-09T10:58:11.532Z,2.88
2023-02-09T11:00:50.090Z,2.86
2023-02-09T11:03:21.144Z,2.90
2023-02-09T11:05:56.942Z,2.96
2023-02-09T11:08:27.077Z,2.93
2023-02-09T11:11:06.085Z,2.80
2023-02-09T11:13:34.470Z,2.84
2023-02-09T11:16:38.082Z,2.76
2023-02-09T11:19:23.930Z,2.85
2023-02-09T11:22:40.725Z,2.89
2023-02-09T11:25:28.892Z,3.04
2023-02-09T11:28:20.560Z,3.11
2023-02-09T11:31:15.036Z,3.13
2023-02-09T11:33:47.867Z,3.22
2023-02-09T11:36:33.236Z,3.34
2023-02-09T11:39:05.585Z,3.32
2023-02-09T11:41:57.413Z,3.32
2023-02-09T11:44:41.584Z,3.31
2023-02-09T11:47:14.933Z,3.36
2023-02-09T11:49:49.457Z,3.20
2023-02-09T11:52:40.418Z,3.38
2023-02-09T11:55:27.473Z,3.40
2023-02-09T11:58:08.779Z,3.36
2023-02-09T12:00:57.752Z,3.31
2023-02-09T12:03:28.672Z,3.37
2023-02-09T12:05:56.871Z,3.50
2023-02-09T12:08:38.556Z,3.48
2023-02-09T12:11:26.554Z,3.34
2023-02-09T12:13:58.958Z,3.33
2023-02-09T12:16:33.753Z,3.33
2023-02-09T12:19:02.471Z,3.32
2023-02-09T12:21:35.328Z,3.38
2023-02-09T12:24:27.721Z,3.46
2023-02-09T12:26:58.118Z,3.55
2023-02-09T12:29:40.444Z,3.68
2023-02-09T12:32:08.130Z,3.63
2023-02-09T12:34:49.778Z,3.54
2023-02-09T12:37:36.974Z,3.52
2023-02-09T12:40:03.903Z,3.65
2023-02-09T12:42:42.261Z,3.64
2023-02-09T12:45:30.643Z,3.61
2023-02-09T12:48:07.684Z,3.74
2023-02-09T12:50:55.488Z,3.79
2023-02-09T12:53:26.361Z,3.90
2023-02-09T12:56:10.862Z,3.81
2023-02-09T12:58:49.634Z,3.77
2023-02-09T13:01:18.195Z,3.93
2023-02-09T13:03:55.602Z,3.72
2023-02-09T13:06:28.511Z,3.71
2023-02-09T13:08:57.108Z,3.70
2023-02-09T13:11:31.558Z,3.71
2023-02-09T13:14:07.461Z,3.78
2023-02-09T13:16:55.080Z,3.72
2023-02-09T13:19:45.997Z,3.63
2023-02-09T13:22:25.366Z,3.57
2023-02-09T13:25:01.581Z,3.67
2023-02-09T13:27:30.714Z,3.71
2023-02-09T13:29:59.371Z,3.74
2023-02-09T13:32:53.495Z,3.63
2023-02-09T13:35:27.651Z,3.65
2023-02-09T13:37:59.281Z,3.67
2023-02-09T13:40:29.452Z,3.65
2023-02-09T13:43:14.928Z,3.64
2023-02-09T13:45:50.019Z,3.64
2023-02-09T13:48:35.891Z,3.62
2023-02-09T13:51:18.928Z,3.65
2023-02-09T13:54:00.680Z,3.63
2023-02-09T13:56:28.840Z,3.72
2023-02-09T13:58:56.852Z,3.73
2023-02-09T14:01:35.323Z,3.73
2023-02-09T14:04:02.094Z,3.80
2023-02-09T14:06:37.881Z,3.77
2023-02-09T14:09:11.898Z,3.74
2023-02-09T14:11:48.603Z,3.69
2023-02-09T14:14:22.375Z,3.69
2023-02-09T14:17:23.759Z,3.71
2023-02-09T14:19:52.427Z,3.75
2023-02-09T14:22:37.539Z,3.72
2023-02-09T14:25:23.215Z,3.78
2023-02-09T14:27:50.083Z,3.87
2023-02-09T14:30:25.815Z,3.84
2023-02-09T14:32:55.399Z,3.86
2023-02-09T14:35:36.650Z,3.73
2023-02-09T14:38:03.967Z,3.78
2023-02-09T14:40:37.216Z,3.67
2023-02-09T14:43:06.916Z,3.44
2023-02-09T14:45:39.753Z,3.60
2023-02-09T14:48:25.423Z,3.50
2023-02-09T14:50:57.900Z,3.49
2023-02-09T14:53:27.971Z,3.46
2023-02-09T14:55:56.025Z,3.41
2023-02-09T14:58:31.307Z,3.37
2023-02-09T15:01:00.933Z,3.42
2023-02-09T15:03:28.216Z,3.40
2023-02-09T15:06:05.852Z,3.37
2023-02-09T15:08:37.016Z,3.39
2023-02-09T15:11:26.506Z,3.38
2023-02-09T15:13:58.706Z,3.34
2023-02-09T15:16:25.652Z,3.36
2023-02-09T15:18:53.517Z,3.35
2023-02-09T15:21:20.287Z,3.35
2023-02-09T15:23:47.146Z,3.34
2023-02-09T15:26:18.644Z,3.31
2023-02-09T15:28:45.586Z,3.33
2023-02-09T15:31:16.379Z,3.28
2023-02-09T15:33:43.268Z,3.22
2023-02-09T15:36:20.334Z,3.16
2023-02-09T15:38:47.993Z,3.20
2023-02-09T15:41:35.974Z,3.28
2023-02-09T15:44:36.484Z,3.24
2023-02-09T15:47:23.379Z,3.23
2023-02-09T15:49:50.590Z,3.18
2023-02-09T15:52:18.749Z,3.14
2023-02-09T15:54:45.904Z,3.09
2023-02-09T15:57:14.374Z,3.04
2023-02-09T15:59:41.575Z,2.99
2023-02-09T16:02:16.057Z,2.89
2023-02-09T16:04:43.205Z,2.88
2023-02-09T16:07:16.966Z,2.80
2023-02-09T16:09:44.013Z,2.77
2023-02-09T16:12:12.092Z,2.73
2023-02-09T16:14:39.109Z,2.69
2023-02-09T16:17:05.888Z,2.65
2023-02-09T16:19:32.715Z,2.62
2023-02-09T16:22:03.184Z,2.62
2023-02-09T16:24:45.627Z,2.54
2023-02-09T16:27:21.717Z,2.56
2023-02-09T16:29:48.540Z,2.56
2023-02-09T16:32:19.766Z,2.54
2023-02-09T16:34:46.705Z,2.51
2023-02-09T16:37:16.297Z,2.48
2023-02-09T16:39:43.880Z,2.50
2023-02-09T16:42:13.121Z,2.44
2023-02-09T16:44:40.089Z,2.44
2023-02-09T16:47:26.072Z,2.36
2023-02-09T16:50:02.867Z,2.33
2023-02-09T16:52:30.901Z,2.34
2023-02-09T16:55:00.409Z,2.33
2023-02-09T16:57:29.097Z,2.34
2023-02-09T16:59:56.139Z,2.32
2023-02-09T17:02:43.260Z,2.27
2023-02-09T17:05:22.831Z,2.22
2023-02-09T17:07:55.328Z,2.25
2023-02-09T17:10:25.424Z,2.20
2023-02-09T17:12:53.751Z,2.17
2023-02-09T17:15:30.005Z,2.14
2023-02-09T17:18:03.516Z,2.10
2023-02-09T17:20:38.232Z,2.05
2023-02-09T17:23:05.438Z,2.01
2023-02-09T17:25:32.381Z,1.98
2023-02-09T17:27:59.232Z,1.95
2023-02-09T17:30:26.159Z,1.94
2023-02-09T17:33:00.072Z,1.89
2023-02-09T17:35:53.085Z,1.87
2023-02-09T17:38:22.819Z,1.82
2023-02-09T17:40:51.057Z,1.84
2023-02-09T17:43:18.259Z,1.83
2023-02-09T17:45:51.186Z,1.80
2023-02-09T17:48:27.431Z,1.71
2023-02-09T17:50:58.016Z,1.68
2023-02-09T17:53:27.741Z,1.62
2023-02-09T17:55:56.443Z,1.61
2023-02-09T17:58:23.824Z,1.59
2023-02-09T18:00:53.199Z,1.54
2023-02-09T18:03:22.387Z,1.51
2023-02-09T18:05:55.778Z,1.50
2023-02-09T18:08:22.935Z,1.27
2023-02-09T18:10:49.966Z,1.37
2023-02-09T18:13:18.702Z,1.35
2023-02-09T18:15:46.377Z,1.34
2023-02-09T18:18:13.406Z,1.29
2023-02-09T18:20:41.112Z,1.25
2023-02-09T18:23:08.973Z,1.21
2023-02-09T18:25:38.133Z,1.17
2023-02-09T18:28:07.015Z,1.16
2023-02-09T18:30:37.098Z,1.15
2023-02-09T18:33:04.889Z,1.14
2023-02-09T18:35:36.298Z,1.10
2023-02-09T18:38:05.371Z,1.11
2023-02-09T18:40:32.427Z,1.10
2023-02-09T18:43:01.137Z,1.11
2023-02-09T18:45:28.474Z,1.09
2023-02-09T18:47:55.408Z,1.11
2023-02-09T18:50:24.636Z,1.13
2023-02-09T18:52:54.213Z,1.14
2023-02-09T18:55:24.519Z,1.13
2023-02-09T18:57:52.674Z,1.10
2023-02-09T19:00:20.508Z,1.14
2023-02-09T19:02:53.490Z,1.12
2023-02-09T19:05:20.540Z,1.14
2023-02-09T19:07:47.462Z,1.15
2023-02-09T19:10:20.070Z,1.11
2023-02-09T19:12:47.098Z,1.06
2023-02-09T19:15:14.862Z,1.05
2023-02-09T19:17:42.228Z,1.05
2023-02-09T19:20:15.810Z,1.02
2023-02-09T19:22:44.531Z,0.99
2023-02-09T19:25:11.337Z,0.95
2023-02-09T19:27:39.676Z,0.91
2023-02-09T19:30:06.980Z,0.91
2023-02-09T19:32:33.808Z,0.90
2023-02-09T19:35:02.121Z,0.85
2023-02-09T19:37:31.152Z,0.82
2023-02-09T19:40:04.920Z,0.81
2023-02-09T19:42:32.629Z,0.76
2023-02-09T19:45:00.374Z,0.75
2023-02-09T19:47:28.925Z,0.71
2023-02-09T19:49:57.903Z,0.73
2023-02-09T19:52:26.834Z,0.72
2023-02-09T19:54:54.151Z,0.74
2023-02-09T19:57:22.317Z,0.70
2023-02-09T19:59:49.172Z,0.73
2023-02-09T20:02:17.238Z,0.74
2023-02-09T20:04:45.977Z,0.74
2023-02-09T20:07:14.012Z,0.71
2023-02-09T20:09:42.294Z,0.67
2023-02-09T20:12:09.016Z,0.68
2023-02-09T20:14:37.094Z,0.72
2023-02-09T20:17:06.539Z,0.74
2023-02-09T20:19:37.124Z,0.72
2023-02-09T20:22:04.299Z,0.70
2023-02-09T20:24:31.255Z,0.67
2023-02-09T20:26:58.132Z,0.63
2023-02-09T20:29:25.147Z,0.63
2023-02-09T20:31:51.969Z,0.62
2023-02-09T20:34:18.941Z,0.64
2023-02-09T20:36:48.184Z,0.69
2023-02-09T20:39:16.343Z,0.68
2023-02-09T20:42:06.736Z,0.70
2023-02-09T20:44:52.972Z,0.71
2023-02-09T20:47:19.999Z,0.73
2023-02-09T20:49:47.152Z,0.74
2023-02-09T20:52:16.410Z,0.73
2023-02-09T20:54:43.215Z,0.74
2023-02-09T20:57:12.627Z,0.74
2023-02-09T20:59:39.470Z,0.74
2023-02-09T21:02:06.317Z,0.74
2023-02-09T21:04:33.208Z,0.72
2023-02-09T21:07:00.572Z,0.74
2023-02-09T21:09:28.343Z,0.73
2023-02-09T21:11:55.497Z,0.73
2023-02-09T21:14:32.446Z,0.71
2023-02-09T21:17:05.966Z,0.68
2023-02-09T21:19:34.529Z,0.70
2023-02-09T21:22:01.414Z,0.68
2023-02-09T21:24:28.275Z,0.63
2023-02-09T21:26:55.084Z,0.62
2023-02-09T21:29:23.777Z,0.61
2023-02-09T21:31:52.064Z,0.60
2023-02-09T21:34:19.719Z,0.59
2023-02-09T21:36:46.620Z,0.63
2023-02-09T21:39:16.076Z,0.61
2023-02-09T21:42:02.612Z,0.62
2023-02-09T21:44:32.114Z,0.62
2023-02-09T21:47:00.555Z,0.61
2023-02-09T21:49:27.318Z,0.58
2023-02-09T21:51:54.113Z,0.57
2023-02-09T21:54:20.972Z,0.58
2023-02-09T21:56:47.901Z,0.55
2023-02-09T21:59:14.742Z,0.53
2023-02-09T22:01:42.566Z,0.52
2023-02-09T22:04:09.660Z,0.50
2023-02-09T22:06:36.510Z,0.48
2023-02-09T22:09:06.288Z,0.43
2023-02-09T22:11:33.536Z,0.41
2023-02-09T22:14:00.563Z,0.43
2023-02-09T22:16:27.360Z,0.45
2023-02-09T22:18:54.193Z,0.43
2023-02-09T22:21:21.061Z,0.44
2023-02-09T22:23:48.131Z,0.40
2023-02-09T22:26:15.297Z,0.33
2023-02-09T22:28:42.722Z,0.33
2023-02-09T22:31:12.727Z,0.29
2023-02-09T22:33:39.740Z,0.26
2023-02-09T22:36:11.396Z,0.24
2023-02-09T22:38:38.234Z,0.25
2023-02-09T22:41:21.408Z,0.20
2023-02-09T22:43:53.671Z,0.20
2023-02-09T22:46:25.436Z,0.19
2023-02-09T22:48:57.760Z,0.16
2023-02-09T22:51:27.018Z,0.12
2023-02-09T22:53:54.252Z,0.09
2023-02-09T22:56:21.147Z,0.09
2023-02-09T22:58:48.075Z,0.07
2023-02-09T23:01:15.477Z,0.06
2023-02-09T23:03:42.442Z,0.03
2023-02-09T23:06:16.778Z,-0.02
2023-02-09T23:08:43.770Z,-0.01
2023-02-09T23:11:16.757Z,-0.06
2023-02-09T23:13:45.616Z,-0.11
2023-02-09T23:16:16.530Z,-0.11
2023-02-09T23:18:52.447Z,-0.09
2023-02-09T23:21:20.772Z,-0.12
2023-02-09T23:23:47.729Z,-0.18
2023-02-09T23:26:16.008Z,-0.19
2023-02-09T23:28:42.955Z,-0.20
2023-02-09T23:31:13.101Z,-0.22
2023-02-09T23:33:40.256Z,-0.27
2023-02-09T23:36:09.198Z,-0.32
2023-02-09T23:38:36.734Z,-0.35
2023-02-09T23:41:08.488Z,-0.35
2023-02-09T23:43:36.029Z,-0.31
2023-02-09T23:46:04.269Z,-0.34
2023-02-09T23:48:31.647Z,-0.37
2023-02-09T23:51:06.393Z,-0.40
2023-02-09T23:53:34.164Z,-0.42
2023-02-09T23:56:04.106Z,-0.44
2023-02-09T23:58:39.147Z,-0.48
